This demonstration page uses our WeatherBlox Daily Observations layout. Learn more.

Left ArrowRight Arrow

Hourly Observations for September 2, 2017

Temp ( °F °C ) Dew Point ( °F °C ) Humidity (%) Winds ( mph kmh ) Pressure ( in mb ) Visibility ( mi km ) Precip ( " mm )
12:54 am 00:54 Clear 66 18.9 64 17.8 93 93 S 8 13 30 1016 9 14.48406 0 0
1:54 am 01:54 Clear 65 18.3 63 17.2 93 93 S 6 9 30 1016 8 12.87472 0 0
2:54 am 02:54 Cloudy 64 17.8 63 17.2 96 96 S 5 7 30 1016 7 11.26538 0 0
3:54 am 03:54 Partly Cloudy 64 17.8 63 17.2 96 96 SSE 6 9 29.99 1016 7 11.26538 0 0
4:54 am 04:54 Clear with Mist and Fog 64 17.8 62 16.7 93 93 SSE 3 6 29.99 1016 6 9.65604 0 0
5:54 am 05:54 Partly Cloudy with Mist and Fog 63 17.2 62 16.7 97 97 S 6 9 30 1016 6 9.65604 0 0
6:54 am 06:54 Clear 65 18.3 62 16.7 90 90 SSW 3 6 30.01 1016 9 14.48406 0 0
7:54 am 07:54 Mostly Sunny 66 18.9 63 17.2 90 90 SSW 7 11 30.01 1016 8 12.87472 0 0
8:54 am 08:54 Sunny 68 20 64 17.8 87 87 S 9 15 30.01 1016 10 16.0934 0 0
9:54 am 09:54 Sunny 72 22.2 63 17.2 73 73 SW 13 20 30.01 1016 10 16.0934 0 0
10:54 am 10:54 Sunny 76 24.4 65 18.3 69 69 W 10 17 30.01 1016 10 16.0934 0 0
11:54 am 11:54 Sunny 78 25.6 65 18.3 64 64 VRB 5 7 30.01 1016 10 16.0934 0 0
12:54 pm 12:54 Sunny 81 27.2 67 19.4 62 62 NW 7 11 30 1016 10 16.0934 0 0
1:54 pm 13:54 Sunny 84 28.9 67 19.4 57 57 N 12 19 29.99 1016 10 16.0934 0 0
2:54 pm 14:54 Sunny 85 29.4 67 19.4 55 55 N 13 20 29.98 1015 10 16.0934 0 0
3:54 pm 15:54 Sunny 85 29.4 68 20 57 57 N 7 11 29.98 1015 10 16.0934 0 0
4:54 pm 16:54 Mostly Sunny 85 29.4 66 18.9 53 53 NNE 13 20 29.98 1015 10 16.0934 0 0
5:54 pm 17:54 Sunny 84 28.9 67 19.4 57 57 N 9 15 29.98 1015 10 16.0934 0 0
6:54 pm 18:54 Sunny 81 27.2 68 20 65 65 NNE 6 9 29.99 1016 10 16.0934 0 0
7:54 pm 19:54 Sunny 77 25 67 19.4 71 71 ENE 5 7 30 1016 10 16.0934 0 0
8:54 pm 20:54 Mostly Cloudy 76 24.4 68 20 77 77 N 3 6 30.02 1017 10 16.0934 0 0
9:54 pm 21:54 Clear 73 22.8 68 20 84 84 N 5 7 30.04 1017 10 16.0934 0 0
10:54 pm 22:54 Clear 70 21.1 67 19.4 90 90 N 3 6 30.04 1017 10 16.0934 0 0
11:54 pm 23:54 Clear 68 20 65 18.3 90 90 W 3 6 30.04 1017 9 14.48406 0 0

Powered by AerisWeather